createdAt,value
2018-02-06T00:00:52.800Z,71.30
2018-02-06T00:05:56.698Z,72.60
2018-02-06T00:11:00.934Z,72.20
2018-02-06T00:26:13.096Z,73.30
2018-02-06T00:31:17.971Z,73.50
2018-02-06T00:36:22.476Z,74.50
2018-02-06T00:41:26.414Z,74.00
2018-02-06T00:46:29.892Z,73.90
2018-02-06T00:56:37.523Z,73.10
2018-02-06T01:01:44.192Z,72.80
2018-02-06T01:06:47.324Z,72.60
2018-02-06T01:11:51.924Z,72.60
2018-02-06T01:16:55.040Z,72.30
2018-02-06T01:21:59.631Z,72.00
2018-02-06T01:27:03.546Z,71.80
2018-02-06T01:32:07.395Z,72.30
2018-02-06T01:37:12.024Z,71.70
2018-02-06T01:42:16.085Z,71.90
2018-02-06T01:47:20.725Z,72.60
2018-02-06T01:52:24.230Z,73.20
2018-02-06T01:57:28.294Z,73.70
2018-02-06T02:02:32.222Z,74.00
2018-02-06T02:07:35.680Z,73.80
2018-02-06T02:12:40.297Z,74.10
2018-02-06T02:17:44.747Z,73.20
2018-02-06T02:22:48.734Z,73.20
2018-02-06T02:27:53.386Z,72.70
2018-02-06T02:32:56.847Z,72.60
2018-02-06T02:38:02.194Z,73.30
2018-02-06T04:39:38.917Z,71.50
2018-02-06T04:44:42.116Z,70.70
2018-02-06T04:49:46.045Z,71.30
2018-02-06T04:54:50.490Z,70.90
2018-02-06T04:59:54.476Z,71.00
2018-02-06T05:04:57.722Z,71.40
2018-02-06T05:10:02.068Z,71.90
2018-02-06T05:15:05.412Z,71.70
2018-02-06T05:20:09.356Z,71.90
2018-02-06T05:25:14.015Z,72.20
2018-02-06T05:30:18.052Z,72.70
2018-02-06T05:35:21.166Z,72.20
2018-02-06T05:40:25.403Z,72.20
2018-02-06T05:45:29.289Z,72.60
2018-02-06T05:50:32.388Z,71.60
2018-02-06T05:55:36.247Z,71.50
2018-02-06T06:00:40.139Z,71.30
2018-02-06T06:05:43.959Z,70.60
2018-02-06T06:10:47.052Z,70.60
2018-02-06T06:15:50.154Z,70.60
2018-02-06T06:20:53.259Z,70.60
2018-02-06T06:25:57.865Z,70.60
2018-02-06T06:31:00.980Z,70.40
2018-02-06T06:36:04.467Z,70.30
2018-02-06T06:41:07.560Z,70.60
2018-02-06T06:46:10.668Z,70.60
2018-02-06T06:51:14.544Z,70.20
2018-02-06T06:56:19.155Z,70.10
2018-02-06T07:06:23.716Z,70.00
2018-02-06T07:11:27.568Z,70.00
2018-02-06T07:16:31.420Z,69.70
2018-02-06T07:31:44.936Z,68.90
2018-02-06T07:46:57.329Z,68.40
2018-02-06T08:07:13.793Z,68.60
2018-02-06T08:22:26.512Z,68.00
2018-02-06T08:32:34.419Z,67.30
2018-02-06T08:37:37.960Z,67.80
2018-02-06T08:47:47.039Z,67.10
2018-02-06T08:57:56.055Z,66.60
2018-02-06T09:02:59.543Z,66.50
2018-02-06T09:13:07.073Z,66.00
2018-02-06T09:23:14.639Z,66.50
2018-02-06T09:28:18.492Z,66.40
2018-02-06T09:33:21.578Z,67.50
2018-02-06T09:38:24.668Z,66.80
2018-02-06T09:43:28.143Z,66.90
2018-02-06T09:48:31.464Z,68.40
2018-02-06T09:53:37.264Z,69.60
2018-02-06T09:58:40.343Z,71.40
2018-02-06T10:03:44.196Z,74.00
2018-02-06T10:08:47.287Z,74.10
2018-02-06T10:13:51.158Z,75.30
2018-02-06T10:18:54.999Z,75.80
2018-02-06T10:23:58.091Z,76.90
2018-02-06T10:29:01.947Z,77.80
2018-02-06T10:34:06.166Z,77.20
2018-02-06T10:44:14.435Z,75.40
2018-02-06T10:49:17.748Z,75.10
2018-02-06T10:54:21.806Z,75.30
2018-02-06T10:59:25.640Z,75.00
2018-02-06T11:04:29.483Z,73.50
2018-02-06T11:09:32.969Z,73.40
2018-02-06T11:14:36.439Z,72.90
2018-02-06T11:19:39.528Z,72.30
2018-02-06T11:24:42.628Z,72.20
2018-02-06T11:29:46.503Z,71.80
2018-02-06T11:34:49.895Z,70.20
2018-02-06T11:39:53.743Z,70.30
2018-02-06T11:44:57.241Z,69.60
2018-02-06T11:50:01.095Z,69.80
2018-02-06T11:55:05.308Z,70.20
2018-02-06T12:00:08.792Z,70.10
2018-02-06T12:05:11.921Z,70.20
2018-02-06T12:10:15.008Z,70.30
2018-02-06T12:15:18.879Z,70.90
2018-02-06T12:20:21.963Z,70.30
2018-02-06T12:25:26.559Z,70.40
2018-02-06T12:30:29.647Z,69.80
2018-02-06T12:35:34.087Z,70.30
2018-02-06T12:40:38.299Z,70.30
2018-02-06T12:45:41.379Z,69.80
2018-02-06T12:50:44.455Z,70.30
2018-02-06T13:00:51.976Z,70.00
2018-02-06T13:05:55.074Z,69.20
2018-02-06T13:10:59.140Z,69.60
2018-02-06T13:16:03.726Z,69.80
2018-02-06T13:21:08.331Z,69.90
2018-02-06T13:26:11.807Z,69.40
2018-02-06T13:41:25.318Z,68.00
2018-02-06T13:56:37.731Z,68.60
2018-02-06T14:01:41.869Z,68.70
2018-02-06T14:11:50.515Z,71.50
2018-02-06T14:16:53.586Z,73.20
2018-02-06T14:21:57.072Z,72.70
2018-02-06T14:27:00.925Z,74.60
2018-02-06T14:37:09.575Z,76.90
2018-02-06T14:42:12.676Z,79.50
2018-02-06T14:47:16.887Z,80.80
2018-02-06T14:52:20.755Z,81.30
2018-02-06T14:57:23.834Z,81.40
2018-02-06T15:02:27.671Z,82.80
2018-02-06T15:07:31.563Z,82.20
2018-02-06T15:12:35.775Z,82.70
2018-02-06T15:17:38.863Z,82.80
2018-02-06T15:22:43.074Z,83.90
2018-02-06T15:27:46.151Z,83.50
2018-02-06T15:37:54.076Z,85.00
2018-02-06T15:42:57.916Z,85.00
2018-02-06T15:48:02.511Z,85.30
2018-02-06T15:53:05.987Z,85.40
2018-02-06T15:58:10.623Z,86.30
2018-02-06T16:03:14.120Z,86.90
2018-02-06T16:08:17.640Z,86.90
2018-02-06T16:13:20.730Z,86.70
2018-02-06T16:18:25.335Z,86.50
2018-02-06T16:28:35.492Z,86.30
2018-02-06T16:33:38.577Z,86.40
2018-02-06T16:43:47.600Z,87.30
2018-02-06T16:48:51.456Z,87.50
2018-02-06T16:53:54.931Z,87.60
2018-02-06T16:58:58.779Z,87.90
2018-02-06T17:04:02.263Z,88.00
2018-02-06T17:09:05.366Z,88.00
2018-02-06T17:14:09.630Z,87.80
2018-02-06T17:19:13.096Z,88.20
2018-02-06T17:24:16.183Z,88.60
2018-02-06T17:29:19.712Z,88.20
2018-02-06T17:34:24.264Z,88.30
2018-02-06T17:39:27.851Z,88.70
2018-02-06T17:44:31.684Z,88.70
2018-02-06T17:49:35.564Z,89.40
2018-02-06T17:54:40.594Z,89.10
2018-02-06T17:59:43.704Z,89.80
2018-02-06T18:04:47.956Z,89.80
2018-02-06T18:09:51.036Z,89.80
2018-02-06T18:14:54.120Z,90.00
2018-02-06T18:25:01.868Z,89.80
2018-02-06T18:35:10.217Z,90.20
2018-02-06T18:40:13.288Z,90.20
2018-02-06T18:45:17.301Z,90.20
2018-02-06T18:50:20.395Z,89.90
2018-02-06T18:55:23.495Z,90.20
2018-02-06T19:00:26.980Z,90.20
2018-02-06T19:05:31.187Z,90.20
2018-02-06T19:10:35.044Z,90.20
2018-02-06T19:15:38.352Z,90.20
2018-02-06T19:20:42.676Z,90.40
2018-02-06T19:40:59.872Z,90.70
2018-02-06T19:46:02.955Z,90.60
2018-02-06T19:51:07.663Z,90.70
2018-02-06T19:56:11.636Z,90.60
2018-02-06T20:06:19.170Z,90.20
2018-02-06T20:11:22.644Z,90.20
2018-02-06T20:16:25.732Z,90.30
2018-02-06T20:21:30.366Z,90.20
2018-02-06T20:26:33.840Z,90.50
2018-02-06T20:31:37.706Z,90.20
2018-02-06T20:36:41.011Z,90.20
2018-02-06T20:41:45.051Z,90.40
2018-02-06T20:46:48.155Z,90.70
2018-02-06T20:51:51.249Z,90.40
2018-02-06T20:56:54.348Z,90.40
2018-02-06T21:01:58.208Z,90.90
2018-02-06T21:07:01.292Z,90.70
2018-02-06T21:12:04.398Z,90.60
2018-02-06T21:17:07.472Z,90.70
2018-02-06T21:22:10.559Z,90.80
2018-02-06T21:27:13.637Z,90.80
2018-02-06T21:32:16.724Z,90.70
2018-02-06T21:37:19.807Z,90.80
2018-02-06T21:42:24.793Z,91.10
2018-02-06T21:47:28.672Z,90.70
2018-02-06T21:52:31.755Z,90.80
2018-02-06T21:57:36.036Z,90.90
2018-02-06T22:02:40.251Z,90.90
2018-02-06T22:07:43.336Z,91.00
2018-02-06T22:12:47.192Z,91.00
2018-02-06T22:17:51.051Z,91.50
2018-02-06T22:22:55.267Z,90.90
2018-02-06T22:27:59.484Z,90.90
2018-02-06T22:33:04.077Z,90.90
2018-02-06T22:38:07.187Z,91.00
2018-02-06T22:43:11.404Z,91.00
2018-02-06T22:48:14.484Z,91.00
2018-02-06T22:53:17.567Z,90.80
2018-02-06T22:58:21.140Z,90.90
2018-02-06T23:08:28.712Z,90.80
2018-02-06T23:13:31.805Z,90.80
2018-02-06T23:18:34.943Z,90.80
2018-02-06T23:28:42.880Z,90.80
2018-02-06T23:33:45.977Z,90.80
2018-02-06T23:38:49.099Z,90.80
2018-02-06T23:43:52.188Z,90.80
2018-02-06T23:48:56.825Z,90.80
2018-02-06T23:53:59.916Z,90.80
2018-02-06T23:59:04.151Z,90.70
